Skip Navigation Links
NOAA logo - Click to go to the NOAA homepage
NOAA's National Weather Service
Alaska Aviation Weather Unit
  NWS logo - Click to go to the NWS homepage
Left Navbar Graphic     21 AKDT = 05 GMT

   
NOAA is celebrating 200 years of science, service, and stewardship. Visit the NOAA 200th celebration Web site to learn more.
USA.gov is the U.S. Government's official Web portal to all Federal, state and local government Web resources and services.
Facebook
NWS on Facebook

AAWU Home :: Display TAF Add Bookmark
TAF PABT 262320Z 2700/2724 32007KT P6SM SCT070 BKN090=
METAR PABT 262353Z 12007KT 10SM FEW050 SCT060 BKN090 03/M05 A2969 RMK
     AO2 SLP066 4/020 T00281050 10039 21022 53004 $=

METAR PABT 270053Z 15008KT 10SM FEW050 SCT060 BKN090 03/M06 A2969 RMK
     AO2 SLP066 T00281061 $=

METAR PABT 270153Z 14007KT 10SM FEW050 SCT060 BKN090 03/M07 A2969 RMK
     AO2 SLP068 T00281072 $=

METAR PABT 270253Z 14007KT 10SM FEW075 BKN090 02/M07 A2970 RMK AO2
     SLP070 T00221072 53003 $=

METAR PABT 270353Z 13006KT 10SM FEW080 BKN090 02/M07 A2970 RMK AO2
     SLP073 T00171072 $=

METAR PABT 270453Z 12008KT 10SM FEW080 BKN090 02/M08 A2971 RMK AO2
     SLP076 T00171083 $=


NOAA's National Weather Service
Alaska Aviation Weather Unit
6930 Sand Lake Road
Anchorage, AK 99502-1845
Disclaimer
Credits
Glossary
Privacy Policy
About Us
Career Opportunities
Contact AAWU Internet Services Site last modified: April, 17th 2012